createdAt,value
2023-05-16T00:00:50.351Z,26.99
2023-05-16T00:01:50.388Z,26.94
2023-05-16T00:02:50.583Z,26.99
2023-05-16T00:03:50.453Z,27.03
2023-05-16T00:04:50.363Z,26.95
2023-05-16T00:05:50.352Z,26.92
2023-05-16T00:06:50.355Z,26.92
2023-05-16T00:07:50.366Z,26.89
2023-05-16T00:08:50.349Z,26.94
2023-05-16T00:09:50.343Z,26.97
2023-05-16T00:10:50.352Z,27.00
2023-05-16T00:11:50.354Z,26.92
2023-05-16T00:12:50.351Z,26.89
2023-05-16T00:13:50.350Z,26.89
2023-05-16T00:14:50.351Z,26.97
2023-05-16T00:15:50.347Z,26.95
2023-05-16T00:16:50.407Z,26.95
2023-05-16T00:17:50.357Z,26.94
2023-05-16T00:18:50.380Z,26.97
2023-05-16T00:19:50.349Z,26.92
2023-05-16T00:20:50.352Z,26.94
2023-05-16T00:21:50.344Z,26.97
2023-05-16T00:22:50.353Z,26.97
2023-05-16T00:23:50.368Z,27.03
2023-05-16T00:24:50.361Z,26.97
2023-05-16T00:25:50.347Z,26.92
2023-05-16T00:26:50.357Z,26.95
2023-05-16T00:27:50.355Z,26.95
2023-05-16T00:28:50.353Z,27.00
2023-05-16T00:29:50.343Z,26.92
2023-05-16T00:30:50.342Z,26.95
2023-05-16T00:31:50.368Z,26.99
2023-05-16T00:32:50.356Z,26.92
2023-05-16T00:33:50.353Z,26.94
2023-05-16T00:34:50.416Z,26.95
2023-05-16T00:35:50.354Z,26.95
2023-05-16T00:36:50.342Z,26.89
2023-05-16T00:37:50.351Z,26.99
2023-05-16T00:38:50.346Z,26.91
2023-05-16T00:39:50.376Z,26.89
2023-05-16T00:40:50.347Z,26.97
2023-05-16T00:41:50.354Z,26.99
2023-05-16T00:42:50.343Z,26.99
2023-05-16T00:43:50.358Z,26.91
2023-05-16T00:44:50.342Z,26.89
2023-05-16T00:45:50.391Z,26.92
2023-05-16T00:46:50.419Z,26.87
2023-05-16T00:47:50.431Z,26.95
2023-05-16T00:48:50.344Z,26.91
2023-05-16T00:49:50.356Z,26.97
2023-05-16T00:50:50.345Z,26.94
2023-05-16T00:51:50.354Z,26.94
2023-05-16T00:52:50.355Z,26.94
2023-05-16T00:53:50.352Z,26.94
2023-05-16T00:54:50.341Z,26.89
2023-05-16T00:55:50.377Z,26.92
2023-05-16T00:56:50.344Z,26.92
2023-05-16T00:57:50.375Z,26.94
2023-05-16T00:58:50.355Z,26.89
2023-05-16T00:59:50.350Z,26.95
2023-05-16T01:00:50.345Z,26.89
2023-05-16T01:01:50.401Z,26.97
2023-05-16T01:02:50.432Z,26.99
2023-05-16T01:03:50.527Z,26.99
2023-05-16T01:04:50.340Z,26.97
2023-05-16T01:05:50.348Z,26.92
2023-05-16T01:06:50.342Z,27.02
2023-05-16T01:07:50.367Z,26.92
2023-05-16T01:08:50.346Z,27.00
2023-05-16T01:09:50.348Z,26.99
2023-05-16T01:10:50.339Z,26.89
2023-05-16T01:11:50.442Z,26.92
2023-05-16T01:12:50.345Z,26.91
2023-05-16T01:13:50.350Z,27.03
2023-05-16T01:14:50.333Z,26.92
2023-05-16T01:15:50.371Z,27.00
2023-05-16T01:16:50.342Z,26.99
2023-05-16T01:17:50.409Z,26.94
2023-05-16T01:18:50.341Z,26.94
2023-05-16T01:19:50.344Z,27.00
2023-05-16T01:20:50.340Z,27.03
2023-05-16T01:21:50.342Z,26.95
2023-05-16T01:22:50.336Z,26.97
2023-05-16T01:23:50.342Z,26.89
2023-05-16T01:24:50.335Z,27.00
2023-05-16T01:25:50.341Z,26.94
2023-05-16T01:26:50.335Z,26.91
2023-05-16T01:27:50.362Z,27.00
2023-05-16T01:28:50.341Z,26.92
2023-05-16T01:29:50.345Z,26.95
2023-05-16T01:30:50.336Z,27.02
2023-05-16T01:31:50.408Z,26.97
2023-05-16T01:32:50.381Z,27.06
2023-05-16T01:33:50.342Z,26.94
2023-05-16T01:34:50.334Z,27.03
2023-05-16T01:35:50.341Z,26.99
2023-05-16T01:36:50.356Z,26.94
2023-05-16T01:37:50.341Z,26.89
2023-05-16T01:38:50.339Z,26.94
2023-05-16T01:39:50.340Z,26.95
2023-05-16T01:40:50.332Z,27.03
2023-05-16T01:41:50.341Z,27.00
2023-05-16T01:42:50.334Z,26.95
2023-05-16T01:43:50.381Z,26.97
2023-05-16T01:44:50.334Z,26.95
2023-05-16T01:45:50.342Z,26.95
2023-05-16T01:46:50.363Z,27.03
2023-05-16T01:47:50.374Z,27.00
2023-05-16T01:48:50.336Z,26.91
2023-05-16T01:49:50.347Z,27.00
2023-05-16T01:50:50.339Z,27.03
2023-05-16T01:51:50.341Z,26.95
2023-05-16T01:52:50.337Z,26.95
2023-05-16T01:53:50.338Z,26.95
2023-05-16T01:54:50.333Z,27.04
2023-05-16T01:55:50.341Z,26.95
2023-05-16T01:56:50.337Z,26.92
2023-05-16T01:57:50.343Z,27.02
2023-05-16T01:58:50.330Z,26.95
2023-05-16T01:59:50.367Z,27.02
2023-05-16T02:00:50.357Z,26.92
2023-05-16T02:01:50.338Z,27.00
2023-05-16T02:02:50.393Z,26.99
2023-05-16T02:03:50.353Z,27.06
2023-05-16T02:04:50.331Z,26.95
2023-05-16T02:05:50.338Z,26.91
2023-05-16T02:06:50.327Z,27.02
2023-05-16T02:07:50.339Z,26.92
2023-05-16T02:08:50.332Z,26.99
2023-05-16T02:09:50.342Z,26.97
2023-05-16T02:10:50.332Z,26.92
2023-05-16T02:11:50.345Z,26.89
2023-05-16T02:12:50.348Z,26.95
2023-05-16T02:13:50.339Z,26.94
2023-05-16T02:14:50.333Z,26.89
2023-05-16T02:15:50.362Z,26.89
2023-05-16T02:16:50.352Z,26.92
2023-05-16T02:17:50.352Z,26.95
2023-05-16T02:18:50.376Z,26.94
2023-05-16T02:19:50.334Z,26.94
2023-05-16T02:20:50.332Z,26.92
2023-05-16T02:21:50.341Z,26.88
2023-05-16T02:22:50.336Z,26.94
2023-05-16T02:23:50.347Z,26.89
2023-05-16T02:24:50.331Z,26.99
2023-05-16T02:25:50.348Z,26.89
2023-05-16T02:26:50.341Z,26.88
2023-05-16T02:27:50.337Z,26.94
2023-05-16T02:28:50.329Z,26.95
2023-05-16T02:29:50.337Z,26.92
2023-05-16T02:30:50.361Z,26.94
2023-05-16T02:31:50.362Z,26.94
2023-05-16T02:32:50.373Z,26.97
2023-05-16T02:33:50.338Z,26.89
2023-05-16T02:34:50.360Z,26.89
2023-05-16T02:35:50.339Z,26.89
2023-05-16T02:36:50.330Z,26.92
2023-05-16T02:37:50.340Z,26.92
2023-05-16T02:38:50.341Z,27.00
2023-05-16T02:39:50.341Z,26.89
2023-05-16T02:40:50.333Z,26.99
2023-05-16T02:41:50.351Z,26.94
2023-05-16T02:42:50.341Z,26.95
2023-05-16T02:43:50.339Z,26.89
2023-05-16T02:44:50.328Z,26.99
2023-05-16T02:45:50.370Z,26.95
2023-05-16T02:46:50.619Z,26.87
2023-05-16T02:47:50.382Z,26.94
2023-05-16T02:48:50.346Z,26.91
2023-05-16T02:49:50.335Z,26.94
2023-05-16T02:50:50.328Z,26.89
2023-05-16T02:51:50.342Z,26.94
2023-05-16T02:52:50.327Z,26.94
2023-05-16T02:53:50.337Z,26.94
2023-05-16T02:55:04.074Z,27.02
2023-05-16T02:55:50.335Z,26.94
2023-05-16T02:56:50.328Z,26.89
2023-05-16T02:57:50.345Z,26.94
2023-05-16T02:58:50.324Z,26.99
2023-05-16T02:59:50.333Z,26.97
2023-05-16T03:00:50.328Z,26.91
2023-05-16T03:01:50.385Z,26.89
2023-05-16T03:02:50.396Z,26.97
2023-05-16T03:03:50.554Z,26.94
2023-05-16T03:04:50.329Z,26.95
2023-05-16T03:05:50.332Z,26.97
2023-05-16T03:06:50.325Z,26.94
2023-05-16T03:07:50.332Z,26.97
2023-05-16T03:08:50.339Z,26.94
2023-05-16T03:09:50.332Z,26.94
2023-05-16T03:10:50.337Z,26.95
2023-05-16T03:11:50.334Z,26.94
2023-05-16T03:12:50.334Z,26.94
2023-05-16T03:13:50.335Z,27.02
2023-05-16T03:14:50.324Z,26.97
2023-05-16T03:15:50.380Z,26.95
2023-05-16T03:16:50.327Z,26.94
2023-05-16T03:17:50.379Z,26.89
2023-05-16T03:18:50.422Z,26.89
2023-05-16T03:19:50.356Z,26.89
2023-05-16T03:20:50.327Z,26.95
2023-05-16T03:21:50.336Z,26.94
2023-05-16T03:22:50.326Z,27.00
2023-05-16T03:23:50.333Z,26.91
2023-05-16T03:24:50.532Z,26.94
2023-05-16T03:25:50.338Z,26.89
2023-05-16T03:26:50.327Z,26.94
2023-05-16T03:27:50.334Z,26.95
2023-05-16T03:28:50.336Z,27.00
2023-05-16T03:29:50.342Z,26.95
2023-05-16T03:30:50.329Z,26.92
2023-05-16T03:31:50.376Z,26.89
2023-05-16T03:32:50.395Z,26.89
2023-05-16T03:33:50.337Z,27.06
2023-05-16T03:34:50.337Z,27.02
2023-05-16T03:35:50.360Z,26.89
2023-05-16T03:36:50.329Z,26.95
2023-05-16T03:37:50.334Z,26.92
2023-05-16T03:38:50.326Z,26.95
2023-05-16T03:39:50.332Z,26.95
2023-05-16T03:40:50.336Z,27.00
2023-05-16T03:41:50.338Z,27.06
2023-05-16T03:42:50.335Z,26.94
2023-05-16T03:43:50.336Z,26.94
2023-05-16T03:44:50.322Z,26.95
2023-05-16T03:45:50.360Z,26.97
2023-05-16T03:46:50.327Z,26.94
2023-05-16T03:47:50.384Z,27.00
2023-05-16T03:48:50.325Z,26.89
2023-05-16T03:49:50.333Z,27.02
2023-05-16T03:50:50.323Z,26.94
2023-05-16T03:51:50.371Z,26.91
2023-05-16T03:52:50.331Z,26.94
2023-05-16T03:53:50.333Z,26.97
2023-05-16T03:54:50.324Z,26.95
2023-05-16T03:55:50.342Z,26.99
2023-05-16T03:56:50.333Z,26.94
2023-05-16T03:57:50.327Z,26.95
2023-05-16T03:58:50.324Z,26.92
2023-05-16T03:59:50.330Z,26.97
2023-05-16T04:00:50.331Z,27.00
2023-05-16T04:01:50.361Z,26.92
2023-05-16T04:02:50.412Z,27.00
2023-05-16T04:03:50.333Z,26.99
2023-05-16T04:04:50.328Z,26.94
2023-05-16T04:05:50.350Z,26.92
2023-05-16T04:06:50.322Z,27.00
2023-05-16T04:07:50.353Z,26.99
2023-05-16T04:08:50.326Z,26.97
2023-05-16T04:09:50.338Z,27.03
2023-05-16T04:10:50.321Z,26.95
2023-05-16T04:11:50.329Z,26.97
2023-05-16T04:12:50.346Z,26.97
2023-05-16T04:13:50.384Z,26.94
2023-05-16T04:14:50.321Z,26.92
2023-05-16T04:15:50.329Z,26.97
2023-05-16T04:16:50.468Z,26.94
2023-05-16T04:17:50.398Z,26.94
2023-05-16T04:18:50.364Z,26.95
2023-05-16T04:19:50.329Z,26.95
2023-05-16T04:20:50.336Z,26.99
2023-05-16T04:21:50.327Z,26.92
2023-05-16T04:22:50.321Z,26.89
2023-05-16T04:23:50.353Z,26.97
2023-05-16T04:24:50.327Z,26.97
2023-05-16T04:25:50.330Z,26.89
2023-05-16T04:26:50.324Z,26.88
2023-05-16T04:27:50.330Z,26.91
2023-05-16T04:28:50.323Z,26.88
2023-05-16T04:29:50.335Z,26.91
2023-05-16T04:30:50.335Z,26.88
2023-05-16T04:31:50.398Z,26.88
2023-05-16T04:32:50.359Z,26.82
2023-05-16T04:33:50.330Z,26.84
2023-05-16T04:34:50.325Z,26.80
2023-05-16T04:35:50.339Z,26.84
2023-05-16T04:36:50.321Z,26.77
2023-05-16T04:37:50.329Z,26.82
2023-05-16T04:38:50.321Z,26.85
2023-05-16T04:39:50.353Z,26.82
2023-05-16T04:40:50.323Z,26.77
2023-05-16T04:41:50.330Z,26.77
2023-05-16T04:42:50.320Z,26.81
2023-05-16T04:43:50.335Z,26.77
2023-05-16T04:44:50.322Z,26.73
2023-05-16T04:45:50.329Z,26.75
2023-05-16T04:46:50.423Z,26.76
2023-05-16T04:47:50.333Z,26.85
2023-05-16T04:48:50.327Z,26.67
2023-05-16T04:49:50.333Z,26.73
2023-05-16T04:50:50.329Z,26.73
2023-05-16T04:51:50.349Z,26.67
2023-05-16T04:52:50.329Z,26.75
2023-05-16T04:53:50.319Z,26.65
2023-05-16T04:54:50.327Z,26.75
2023-05-16T04:55:50.350Z,26.76
2023-05-16T04:56:50.326Z,26.76
2023-05-16T04:57:50.326Z,26.73
2023-05-16T04:58:50.324Z,26.72
2023-05-16T04:59:50.317Z,26.77
2023-05-16T05:00:50.327Z,26.70
2023-05-16T05:01:50.479Z,26.67
2023-05-16T05:02:50.369Z,26.66
2023-05-16T05:03:50.316Z,26.72
2023-05-16T05:04:50.354Z,26.62
2023-05-16T05:05:50.318Z,26.62
2023-05-16T05:06:50.323Z,26.60
2023-05-16T05:07:50.314Z,26.66
2023-05-16T05:08:50.325Z,26.58
2023-05-16T05:09:50.316Z,26.60
2023-05-16T05:10:50.337Z,26.65
2023-05-16T05:11:50.335Z,26.65
2023-05-16T05:12:50.322Z,26.58
2023-05-16T05:13:52.524Z,26.60
2023-05-16T05:14:50.319Z,26.62
2023-05-16T05:15:50.312Z,26.69
2023-05-16T05:16:50.370Z,26.63
2023-05-16T05:17:50.348Z,26.60
2023-05-16T05:18:50.428Z,26.62
2023-05-16T05:19:50.311Z,26.60
2023-05-16T05:20:50.318Z,26.60
2023-05-16T05:21:50.312Z,26.60
2023-05-16T05:22:50.316Z,26.57
2023-05-16T05:23:50.308Z,26.65
2023-05-16T05:24:50.322Z,26.58
2023-05-16T05:25:50.310Z,26.62
2023-05-16T05:26:50.321Z,26.66
2023-05-16T05:27:50.330Z,26.66
2023-05-16T05:29:01.071Z,26.65
2023-05-16T05:29:50.308Z,26.72
2023-05-16T05:30:50.312Z,26.60
2023-05-16T05:31:50.398Z,26.69
2023-05-16T05:32:50.367Z,26.70
2023-05-16T05:33:50.305Z,26.63
2023-05-16T05:34:50.318Z,26.75
2023-05-16T05:35:50.302Z,26.73
2023-05-16T05:36:50.312Z,26.65
2023-05-16T05:37:50.303Z,26.73
2023-05-16T05:38:50.316Z,26.72
2023-05-16T05:39:50.311Z,26.75
2023-05-16T05:40:50.307Z,26.76
2023-05-16T05:41:50.300Z,26.67
2023-05-16T05:42:50.307Z,26.76
2023-05-16T05:43:50.323Z,26.69
2023-05-16T05:44:50.308Z,26.72
2023-05-16T05:45:50.328Z,26.80
2023-05-16T05:46:50.305Z,26.73
2023-05-16T05:47:50.380Z,26.69
2023-05-16T05:48:50.301Z,26.69
2023-05-16T05:49:50.305Z,26.80
2023-05-16T05:50:50.303Z,26.66
2023-05-16T05:51:50.297Z,26.80
2023-05-16T05:52:50.304Z,26.81
2023-05-16T05:53:50.296Z,26.81
2023-05-16T05:54:50.309Z,26.76
2023-05-16T05:55:50.300Z,26.87
2023-05-16T05:56:50.303Z,26.81
2023-05-16T05:57:50.303Z,26.87
2023-05-16T05:58:50.303Z,26.77
2023-05-16T05:59:50.328Z,26.81
2023-05-16T06:00:50.303Z,26.81
2023-05-16T06:01:50.317Z,26.91
2023-05-16T06:02:50.398Z,26.92
2023-05-16T06:03:50.295Z,26.91
2023-05-16T06:04:50.303Z,26.95
2023-05-16T06:05:50.345Z,26.92
2023-05-16T06:06:50.312Z,26.88
2023-05-16T06:07:50.302Z,26.87
2023-05-16T06:08:50.305Z,26.97
2023-05-16T06:09:50.301Z,26.89
2023-05-16T06:10:50.306Z,26.89
2023-05-16T06:11:50.316Z,26.88
2023-05-16T06:12:50.305Z,26.85
2023-05-16T06:13:50.303Z,26.82
2023-05-16T06:14:50.299Z,26.75
2023-05-16T06:15:50.340Z,26.88
2023-05-16T06:16:50.352Z,26.84
2023-05-16T06:17:50.352Z,26.81
2023-05-16T06:18:50.330Z,26.80
2023-05-16T06:19:50.301Z,26.77
2023-05-16T06:20:50.303Z,26.77
2023-05-16T06:21:50.295Z,26.76
2023-05-16T06:22:50.305Z,26.77
2023-05-16T06:23:50.295Z,26.80
2023-05-16T06:24:50.302Z,26.81
2023-05-16T06:25:50.298Z,26.81
2023-05-16T06:26:50.352Z,26.80
2023-05-16T06:27:50.293Z,26.82
2023-05-16T06:28:50.301Z,26.70
2023-05-16T06:29:50.300Z,26.80
2023-05-16T06:30:50.302Z,26.82
2023-05-16T06:31:50.381Z,26.70
2023-05-16T06:32:50.354Z,26.76
2023-05-16T06:33:50.296Z,26.81
2023-05-16T06:34:50.310Z,26.88
2023-05-16T06:35:50.297Z,26.85
2023-05-16T06:36:50.309Z,26.89
2023-05-16T06:37:50.298Z,26.91
2023-05-16T06:38:50.300Z,26.97
2023-05-16T06:39:50.292Z,26.99
2023-05-16T06:40:50.299Z,26.94
2023-05-16T06:41:50.295Z,26.94
2023-05-16T06:42:50.301Z,26.94
2023-05-16T06:43:50.292Z,26.94
2023-05-16T06:44:50.312Z,26.92
2023-05-16T06:45:50.299Z,26.99
2023-05-16T06:46:50.430Z,27.06
2023-05-16T06:47:50.443Z,27.07
2023-05-16T06:48:50.305Z,27.00
2023-05-16T06:49:50.294Z,27.10
2023-05-16T06:50:50.299Z,27.10
2023-05-16T06:51:50.294Z,27.17
2023-05-16T06:52:50.304Z,27.07
2023-05-16T06:53:50.294Z,27.13
2023-05-16T06:54:50.314Z,27.14
2023-05-16T06:55:50.305Z,27.18
2023-05-16T06:56:50.312Z,27.13
2023-05-16T06:57:50.297Z,27.19
2023-05-16T06:58:50.322Z,27.24
2023-05-16T06:59:50.304Z,27.24
2023-05-16T07:00:50.427Z,27.19
2023-05-16T07:01:50.341Z,27.21
2023-05-16T07:02:50.503Z,27.24
2023-05-16T07:03:50.509Z,27.24
2023-05-16T07:04:50.309Z,27.24
2023-05-16T07:05:50.294Z,27.27
2023-05-16T07:06:50.301Z,27.27
2023-05-16T07:07:50.300Z,27.24
2023-05-16T07:08:50.305Z,27.22
2023-05-16T07:09:50.294Z,27.31
2023-05-16T07:10:50.302Z,27.19
2023-05-16T07:11:50.322Z,27.27
2023-05-16T07:12:50.300Z,27.34
2023-05-16T07:13:50.303Z,27.22
2023-05-16T07:14:50.301Z,27.34
2023-05-16T07:15:50.290Z,27.28
2023-05-16T07:16:50.345Z,27.31
2023-05-16T07:17:50.321Z,27.28
2023-05-16T07:18:50.333Z,27.17
2023-05-16T07:19:50.330Z,27.27
2023-05-16T07:20:50.301Z,27.27
2023-05-16T07:21:50.296Z,27.22
2023-05-16T07:22:50.302Z,27.27
2023-05-16T07:23:50.296Z,27.31
2023-05-16T07:24:50.301Z,27.28
2023-05-16T07:25:50.296Z,27.28
2023-05-16T07:26:50.301Z,27.21
2023-05-16T07:27:50.502Z,27.25
2023-05-16T07:28:50.300Z,27.25
2023-05-16T07:29:50.297Z,27.24
2023-05-16T07:30:50.321Z,27.24
2023-05-16T07:31:50.360Z,27.19
2023-05-16T07:32:50.359Z,27.19
2023-05-16T07:33:50.297Z,27.13
2023-05-16T07:34:50.302Z,27.21
2023-05-16T07:35:51.203Z,27.09
2023-05-16T07:36:50.304Z,27.09
2023-05-16T07:37:50.293Z,27.09
2023-05-16T07:38:50.300Z,27.17
2023-05-16T07:39:50.294Z,27.10
2023-05-16T07:40:50.303Z,27.09
2023-05-16T07:41:50.291Z,27.13
2023-05-16T07:42:50.307Z,27.09
2023-05-16T07:43:50.503Z,27.13
2023-05-16T07:44:50.299Z,27.10
2023-05-16T07:45:50.318Z,27.13
2023-05-16T07:46:50.298Z,27.07
2023-05-16T07:47:50.323Z,27.02
2023-05-16T07:48:50.299Z,27.04
2023-05-16T07:49:50.297Z,26.99
2023-05-16T07:50:50.297Z,27.06
2023-05-16T07:51:50.355Z,26.97
2023-05-16T07:52:50.303Z,26.99
2023-05-16T07:53:50.299Z,27.06
2023-05-16T07:54:50.294Z,27.02
2023-05-16T07:55:50.292Z,26.92
2023-05-16T07:56:50.299Z,26.95
2023-05-16T07:57:50.290Z,27.00
2023-05-16T07:58:50.300Z,26.88
2023-05-16T07:59:50.322Z,26.97
2023-05-16T08:00:50.305Z,26.95
2023-05-16T08:01:50.290Z,26.95
2023-05-16T08:02:50.359Z,26.91
2023-05-16T08:03:50.343Z,26.92
2023-05-16T08:04:50.327Z,26.92
2023-05-16T08:05:50.334Z,26.94
2023-05-16T08:06:50.297Z,26.92
2023-05-16T08:07:50.308Z,26.99
2023-05-16T08:08:50.298Z,26.95
2023-05-16T08:09:50.293Z,26.97
2023-05-16T08:10:50.296Z,26.94
2023-05-16T08:11:50.297Z,26.89
2023-05-16T08:12:50.296Z,26.99
2023-05-16T08:13:50.295Z,26.94
2023-05-16T08:14:50.295Z,26.89
2023-05-16T08:15:50.311Z,26.94
2023-05-16T08:16:50.295Z,26.94
2023-05-16T08:17:50.355Z,26.95
2023-05-16T08:18:50.314Z,26.97
2023-05-16T08:19:50.297Z,26.94
2023-05-16T08:20:50.293Z,26.99
2023-05-16T08:21:50.292Z,26.92
2023-05-16T08:22:50.296Z,27.00
2023-05-16T08:23:50.353Z,26.94
2023-05-16T08:24:50.299Z,26.92
2023-05-16T08:25:50.287Z,26.92
2023-05-16T08:26:50.296Z,26.92
2023-05-16T08:27:50.304Z,26.94
2023-05-16T08:28:50.298Z,26.91
2023-05-16T08:29:50.303Z,26.77
2023-05-16T08:30:50.295Z,26.91
2023-05-16T08:31:50.385Z,26.92
2023-05-16T08:32:50.367Z,26.94
2023-05-16T08:33:50.286Z,26.94
2023-05-16T08:34:50.297Z,26.91
2023-05-16T08:35:50.287Z,26.87
2023-05-16T08:36:50.294Z,26.84
2023-05-16T08:37:50.290Z,26.81
2023-05-16T08:38:50.295Z,26.85
2023-05-16T08:39:50.447Z,26.87
2023-05-16T08:40:50.293Z,26.84
2023-05-16T08:41:50.289Z,26.76
2023-05-16T08:42:50.292Z,26.72
2023-05-16T08:43:50.287Z,26.70
2023-05-16T08:44:50.300Z,26.73
2023-05-16T08:45:50.290Z,26.76
2023-05-16T08:46:50.322Z,26.77
2023-05-16T08:47:50.325Z,26.70
2023-05-16T08:48:50.295Z,26.76
2023-05-16T08:49:50.289Z,26.69
2023-05-16T08:50:50.304Z,26.75
2023-05-16T08:51:50.289Z,26.81
2023-05-16T08:52:50.292Z,26.80
2023-05-16T08:53:50.288Z,26.70
2023-05-16T08:55:01.934Z,26.75
2023-05-16T08:55:50.478Z,26.77
2023-05-16T08:56:50.304Z,26.70
2023-05-16T08:57:50.290Z,26.72
2023-05-16T08:58:50.306Z,26.73
2023-05-16T08:59:50.288Z,26.73
2023-05-16T09:00:50.333Z,26.77
2023-05-16T09:01:50.290Z,26.63
2023-05-16T09:02:50.370Z,26.70
2023-05-16T09:03:50.326Z,26.77
2023-05-16T09:04:50.289Z,26.67
2023-05-16T09:05:50.334Z,26.73
2023-05-16T09:06:50.283Z,26.75
2023-05-16T09:07:50.293Z,26.77
2023-05-16T09:08:50.302Z,26.84
2023-05-16T09:09:50.301Z,26.82
2023-05-16T09:10:50.283Z,26.88
2023-05-16T09:11:50.317Z,26.84
2023-05-16T09:12:50.284Z,26.91
2023-05-16T09:13:50.486Z,26.91
2023-05-16T09:14:50.285Z,26.92
2023-05-16T09:15:50.292Z,26.95
2023-05-16T09:16:50.320Z,26.94
2023-05-16T09:17:50.392Z,26.92
2023-05-16T09:18:50.446Z,26.95
2023-05-16T09:19:50.293Z,27.00
2023-05-16T09:20:50.375Z,27.00
2023-05-16T09:21:50.292Z,27.00
2023-05-16T09:22:50.282Z,27.03
2023-05-16T09:23:50.289Z,26.92
2023-05-16T09:24:50.283Z,27.06
2023-05-16T09:25:50.290Z,27.00
2023-05-16T09:26:50.287Z,27.00
2023-05-16T09:27:50.340Z,26.89
2023-05-16T09:28:50.288Z,27.02
2023-05-16T09:29:50.294Z,26.94
2023-05-16T09:30:50.322Z,26.92
2023-05-16T09:31:50.305Z,26.95
2023-05-16T09:32:50.317Z,26.94
2023-05-16T09:33:50.291Z,26.94
2023-05-16T09:34:50.282Z,26.99
2023-05-16T09:35:50.569Z,27.07
2023-05-16T09:36:50.287Z,26.94
2023-05-16T09:37:50.312Z,27.06
2023-05-16T09:38:50.285Z,27.10
2023-05-16T09:39:50.301Z,27.10
2023-05-16T09:40:50.289Z,27.04
2023-05-16T09:41:50.293Z,27.13
2023-05-16T09:42:50.282Z,27.09
2023-05-16T09:43:50.428Z,27.07
2023-05-16T09:44:50.298Z,27.14
2023-05-16T09:45:50.288Z,27.17
2023-05-16T09:46:50.397Z,27.18
2023-05-16T09:47:50.379Z,27.17
2023-05-16T09:48:50.283Z,27.13
2023-05-16T09:49:50.290Z,27.10
2023-05-16T09:50:50.282Z,27.09
2023-05-16T09:51:50.291Z,27.06
2023-05-16T09:52:50.287Z,27.07
2023-05-16T09:53:50.295Z,27.09
2023-05-16T09:54:50.281Z,27.00
2023-05-16T09:55:50.287Z,26.99
2023-05-16T09:56:50.285Z,27.07
2023-05-16T09:57:50.287Z,26.97
2023-05-16T09:58:50.279Z,26.94
2023-05-16T09:59:50.395Z,26.91
2023-05-16T10:00:50.277Z,26.92
2023-05-16T10:01:50.315Z,26.82
2023-05-16T10:02:50.327Z,26.89
2023-05-16T10:03:50.474Z,26.91
2023-05-16T10:04:50.280Z,26.80
2023-05-16T10:05:50.285Z,26.76
2023-05-16T10:06:50.279Z,26.82
2023-05-16T10:07:50.285Z,26.82
2023-05-16T10:08:50.277Z,26.80
2023-05-16T10:09:50.284Z,26.76
2023-05-16T10:10:50.276Z,26.76
2023-05-16T10:11:50.285Z,26.80
2023-05-16T10:12:50.290Z,26.76
2023-05-16T10:13:50.287Z,26.84
2023-05-16T10:14:50.274Z,26.85
2023-05-16T10:15:50.365Z,26.80
2023-05-16T10:16:50.387Z,26.81
2023-05-16T10:17:50.309Z,26.85
2023-05-16T10:18:50.271Z,26.81
2023-05-16T10:19:50.278Z,26.84
2023-05-16T10:20:50.273Z,26.91
2023-05-16T10:21:50.281Z,26.97
2023-05-16T10:22:50.272Z,26.92
2023-05-16T10:23:50.282Z,26.94
2023-05-16T10:24:50.274Z,27.03
2023-05-16T10:25:50.281Z,27.06
2023-05-16T10:26:50.269Z,27.07
2023-05-16T10:27:50.278Z,27.06
2023-05-16T10:28:50.273Z,27.09
2023-05-16T10:29:54.641Z,27.13
2023-05-16T10:30:50.273Z,27.10
2023-05-16T10:31:50.394Z,27.10
2023-05-16T10:32:50.351Z,27.14
2023-05-16T10:33:50.278Z,27.17
2023-05-16T10:34:50.275Z,27.17
2023-05-16T10:35:50.278Z,27.24
2023-05-16T10:36:50.269Z,27.19
2023-05-16T10:37:50.282Z,27.24
2023-05-16T10:38:50.273Z,27.22
2023-05-16T10:39:50.275Z,27.28
2023-05-16T10:40:50.271Z,27.24
2023-05-16T10:41:50.282Z,27.24
2023-05-16T10:42:50.277Z,27.18
2023-05-16T10:43:50.276Z,27.24
2023-05-16T10:45:01.975Z,27.34
2023-05-16T10:45:50.313Z,27.36
2023-05-16T10:46:50.271Z,27.31
2023-05-16T10:47:50.473Z,27.32
2023-05-16T10:48:51.988Z,27.37
2023-05-16T10:49:50.282Z,27.36
2023-05-16T10:50:50.268Z,27.32
2023-05-16T10:51:50.280Z,27.40
2023-05-16T10:52:50.271Z,27.39
2023-05-16T10:53:50.277Z,27.31
2023-05-16T10:54:50.269Z,27.31
2023-05-16T10:55:50.279Z,27.31
2023-05-16T10:56:50.276Z,27.34
2023-05-16T10:57:50.277Z,27.37
2023-05-16T10:58:50.269Z,27.32
2023-05-16T10:59:50.278Z,27.36
2023-05-16T11:00:50.296Z,27.34
2023-05-16T11:01:50.367Z,27.37
2023-05-16T11:02:50.376Z,27.40
2023-05-16T11:03:50.459Z,27.29
2023-05-16T11:04:50.289Z,27.36
2023-05-16T11:05:50.276Z,27.31
2023-05-16T11:06:50.270Z,27.39
2023-05-16T11:07:50.276Z,27.36
2023-05-16T11:08:50.270Z,27.34
2023-05-16T11:09:50.277Z,27.34
2023-05-16T11:10:50.268Z,27.29
2023-05-16T11:11:50.278Z,27.34
2023-05-16T11:12:50.281Z,27.32
2023-05-16T11:13:50.283Z,27.22
2023-05-16T11:14:50.273Z,27.32
2023-05-16T11:15:50.277Z,27.22
2023-05-16T11:16:50.315Z,27.28
2023-05-16T11:17:50.315Z,27.32
2023-05-16T11:18:50.287Z,27.25
2023-05-16T11:19:50.331Z,27.24
2023-05-16T11:20:50.273Z,27.24
2023-05-16T11:21:50.277Z,27.24
2023-05-16T11:22:50.281Z,27.22
2023-05-16T11:23:50.275Z,27.18
2023-05-16T11:24:50.272Z,27.25
2023-05-16T11:25:50.281Z,27.22
2023-05-16T11:26:50.281Z,27.21
2023-05-16T11:27:50.281Z,27.24
2023-05-16T11:28:50.283Z,27.21
2023-05-16T11:29:50.277Z,27.27
2023-05-16T11:30:50.270Z,27.24
2023-05-16T11:31:50.317Z,27.21
2023-05-16T11:32:50.320Z,27.28
2023-05-16T11:33:50.280Z,27.19
2023-05-16T11:34:50.271Z,27.22
2023-05-16T11:35:50.557Z,27.19
2023-05-16T11:36:50.274Z,27.25
2023-05-16T11:37:50.281Z,27.19
2023-05-16T11:38:50.269Z,27.22
2023-05-16T11:39:50.359Z,27.12
2023-05-16T11:40:50.276Z,27.18
2023-05-16T11:41:50.282Z,27.13
2023-05-16T11:42:50.282Z,27.17
2023-05-16T11:43:50.278Z,27.13
2023-05-16T11:44:50.276Z,27.21
2023-05-16T11:45:50.281Z,27.14
2023-05-16T11:46:50.307Z,27.17
2023-05-16T11:47:50.656Z,27.14
2023-05-16T11:48:50.273Z,27.18
2023-05-16T11:49:50.280Z,27.18
2023-05-16T11:50:50.272Z,27.27
2023-05-16T11:51:50.308Z,27.21
2023-05-16T11:52:50.276Z,27.14
2023-05-16T11:53:50.296Z,27.25
2023-05-16T11:54:50.276Z,27.13
2023-05-16T11:55:53.074Z,27.14
2023-05-16T11:56:50.274Z,27.13
2023-05-16T11:57:50.281Z,27.10
2023-05-16T11:58:50.272Z,27.13
2023-05-16T11:59:50.286Z,27.21
2023-05-16T12:00:50.278Z,27.12
2023-05-16T12:01:50.282Z,27.07
2023-05-16T12:02:50.365Z,27.12
2023-05-16T12:03:50.431Z,27.14
2023-05-16T12:04:50.352Z,27.12
2023-05-16T12:05:50.291Z,27.10
2023-05-16T12:06:50.273Z,27.12
2023-05-16T12:07:50.333Z,27.13
2023-05-16T12:08:50.278Z,27.13
2023-05-16T12:09:50.286Z,27.14
2023-05-16T12:10:50.285Z,27.13
2023-05-16T12:11:50.286Z,27.19
2023-05-16T12:12:50.277Z,27.13
2023-05-16T12:13:50.285Z,27.13
2023-05-16T12:14:50.315Z,27.13
2023-05-16T12:15:50.280Z,27.17
2023-05-16T12:16:50.295Z,27.04
2023-05-16T12:17:50.353Z,27.02
2023-05-16T12:18:50.347Z,27.00
2023-05-16T12:19:50.293Z,27.06
2023-05-16T12:20:50.276Z,26.94
2023-05-16T12:21:50.282Z,27.03
2023-05-16T12:22:50.298Z,26.91
2023-05-16T12:23:50.304Z,26.92
2023-05-16T12:24:50.276Z,26.95
2023-05-16T12:25:50.288Z,26.88
2023-05-16T12:26:50.287Z,26.88
2023-05-16T12:27:50.284Z,26.89
2023-05-16T12:28:50.273Z,26.85
2023-05-16T12:29:50.284Z,26.88
2023-05-16T12:30:50.276Z,26.87
2023-05-16T12:31:50.313Z,26.87
2023-05-16T12:32:50.383Z,26.87
2023-05-16T12:33:50.303Z,26.84
2023-05-16T12:34:50.297Z,26.81
2023-05-16T12:35:50.284Z,26.85
2023-05-16T12:36:50.275Z,26.82
2023-05-16T12:37:50.288Z,26.81
2023-05-16T12:38:50.374Z,26.84
2023-05-16T12:39:50.331Z,26.91
2023-05-16T12:40:50.281Z,26.91
2023-05-16T12:41:50.278Z,26.87
2023-05-16T12:42:50.275Z,26.91
2023-05-16T12:43:50.283Z,26.81
2023-05-16T12:44:50.273Z,26.80
2023-05-16T12:45:50.311Z,26.73
2023-05-16T12:46:50.308Z,26.76
2023-05-16T12:47:50.322Z,26.75
2023-05-16T12:48:50.270Z,26.73
2023-05-16T12:49:50.285Z,26.70
2023-05-16T12:50:50.268Z,26.72
2023-05-16T12:51:50.293Z,26.76
2023-05-16T12:52:50.285Z,26.75